sensor_id;sensor_type;location;lat;lon;timestamp;P1;durP1;ratioP1;P2;durP2;ratioP2
80211;SDS011;70434;37.956;23.722;2023-12-07T00:01:41;10.65;;;5.05;;
80211;SDS011;70434;37.956;23.722;2023-12-07T00:04:07;11.43;;;5.15;;
80211;SDS011;70434;37.956;23.722;2023-12-07T00:06:32;7.63;;;4.50;;
80211;SDS011;70434;37.956;23.722;2023-12-07T00:08:58;9.48;;;5.43;;
80211;SDS011;70434;37.956;23.722;2023-12-07T00:11:26;8.52;;;4.65;;
80211;SDS011;70434;37.956;23.722;2023-12-07T00:13:52;9.52;;;5.00;;
80211;SDS011;70434;37.956;23.722;2023-12-07T00:16:17;10.70;;;5.00;;
80211;SDS011;70434;37.956;23.722;2023-12-07T00:18:43;9.20;;;4.75;;
80211;SDS011;70434;37.956;23.722;2023-12-07T00:21:09;9.43;;;4.82;;
80211;SDS011;70434;37.956;23.722;2023-12-07T00:23:35;12.65;;;5.28;;
80211;SDS011;70434;37.956;23.722;2023-12-07T00:26:03;7.82;;;5.07;;
80211;SDS011;70434;37.956;23.722;2023-12-07T00:28:29;11.75;;;5.30;;
80211;SDS011;70434;37.956;23.722;2023-12-07T00:30:55;9.32;;;4.90;;
80211;SDS011;70434;37.956;23.722;2023-12-07T00:33:21;8.98;;;5.00;;
80211;SDS011;70434;37.956;23.722;2023-12-07T00:35:47;11.70;;;5.07;;
80211;SDS011;70434;37.956;23.722;2023-12-07T00:38:13;10.52;;;6.30;;
80211;SDS011;70434;37.956;23.722;2023-12-07T00:40:38;10.02;;;5.32;;
80211;SDS011;70434;37.956;23.722;2023-12-07T00:43:05;9.60;;;4.57;;
80211;SDS011;70434;37.956;23.722;2023-12-07T00:45:32;12.05;;;5.30;;
80211;SDS011;70434;37.956;23.722;2023-12-07T00:47:58;8.43;;;4.70;;
80211;SDS011;70434;37.956;23.722;2023-12-07T00:50:24;10.13;;;4.88;;
80211;SDS011;70434;37.956;23.722;2023-12-07T00:52:49;8.50;;;4.75;;
80211;SDS011;70434;37.956;23.722;2023-12-07T00:55:15;10.35;;;5.05;;
80211;SDS011;70434;37.956;23.722;2023-12-07T00:57:41;11.07;;;5.28;;
80211;SDS011;70434;37.956;23.722;2023-12-07T01:00:07;8.13;;;4.82;;
80211;SDS011;70434;37.956;23.722;2023-12-07T01:02:33;11.20;;;5.05;;
80211;SDS011;70434;37.956;23.722;2023-12-07T01:04:59;13.52;;;5.63;;
80211;SDS011;70434;37.956;23.722;2023-12-07T01:07:25;10.57;;;4.78;;
80211;SDS011;70434;37.956;23.722;2023-12-07T01:09:51;9.02;;;4.70;;
80211;SDS011;70434;37.956;23.722;2023-12-07T01:12:17;12.27;;;4.70;;
80211;SDS011;70434;37.956;23.722;2023-12-07T01:14:43;8.38;;;3.95;;
80211;SDS011;70434;37.956;23.722;2023-12-07T01:17:08;8.00;;;4.20;;
80211;SDS011;70434;37.956;23.722;2023-12-07T01:19:34;12.45;;;4.38;;
80211;SDS011;70434;37.956;23.722;2023-12-07T01:22:00;11.35;;;4.65;;
80211;SDS011;70434;37.956;23.722;2023-12-07T01:24:26;9.35;;;4.15;;
80211;SDS011;70434;37.956;23.722;2023-12-07T01:26:52;7.85;;;3.75;;
80211;SDS011;70434;37.956;23.722;2023-12-07T01:29:17;9.73;;;4.70;;
80211;SDS011;70434;37.956;23.722;2023-12-07T01:31:43;8.15;;;3.92;;
80211;SDS011;70434;37.956;23.722;2023-12-07T01:34:09;7.82;;;3.75;;
80211;SDS011;70434;37.956;23.722;2023-12-07T01:36:35;8.40;;;3.85;;
80211;SDS011;70434;37.956;23.722;2023-12-07T01:39:01;7.85;;;3.97;;
80211;SDS011;70434;37.956;23.722;2023-12-07T01:41:26;7.22;;;3.63;;
80211;SDS011;70434;37.956;23.722;2023-12-07T01:43:52;10.35;;;3.60;;
80211;SDS011;70434;37.956;23.722;2023-12-07T01:46:18;7.68;;;3.38;;
80211;SDS011;70434;37.956;23.722;2023-12-07T01:48:44;10.95;;;3.50;;
80211;SDS011;70434;37.956;23.722;2023-12-07T01:51:13;6.05;;;3.45;;
80211;SDS011;70434;37.956;23.722;2023-12-07T01:53:39;5.53;;;2.70;;
80211;SDS011;70434;37.956;23.722;2023-12-07T01:56:05;6.95;;;2.80;;
80211;SDS011;70434;37.956;23.722;2023-12-07T01:58:32;4.32;;;2.83;;
80211;SDS011;70434;37.956;23.722;2023-12-07T02:00:59;8.35;;;3.53;;
80211;SDS011;70434;37.956;23.722;2023-12-07T02:03:27;9.07;;;3.13;;
80211;SDS011;70434;37.956;23.722;2023-12-07T02:05:55;5.82;;;2.28;;
80211;SDS011;70434;37.956;23.722;2023-12-07T02:08:21;6.18;;;2.60;;
80211;SDS011;70434;37.956;23.722;2023-12-07T02:10:47;7.35;;;3.17;;
80211;SDS011;70434;37.956;23.722;2023-12-07T02:13:12;8.90;;;2.75;;
80211;SDS011;70434;37.956;23.722;2023-12-07T02:15:38;5.00;;;2.42;;
80211;SDS011;70434;37.956;23.722;2023-12-07T02:21:04;6.22;;;2.65;;
80211;SDS011;70434;37.956;23.722;2023-12-07T02:23:47;7.25;;;3.13;;
80211;SDS011;70434;37.956;23.722;2023-12-07T02:29:23;5.95;;;2.75;;
80211;SDS011;70434;37.956;23.722;2023-12-07T02:31:49;4.72;;;2.28;;
80211;SDS011;70434;37.956;23.722;2023-12-07T02:34:15;6.30;;;2.20;;
80211;SDS011;70434;37.956;23.722;2023-12-07T02:36:41;5.00;;;2.28;;
80211;SDS011;70434;37.956;23.722;2023-12-07T02:39:10;8.63;;;2.90;;
80211;SDS011;70434;37.956;23.722;2023-12-07T02:41:37;6.30;;;2.63;;
80211;SDS011;70434;37.956;23.722;2023-12-07T02:44:06;7.88;;;2.55;;
80211;SDS011;70434;37.956;23.722;2023-12-07T02:46:32;7.18;;;2.20;;
80211;SDS011;70434;37.956;23.722;2023-12-07T02:48:58;7.90;;;3.10;;
80211;SDS011;70434;37.956;23.722;2023-12-07T02:51:24;6.75;;;2.30;;
80211;SDS011;70434;37.956;23.722;2023-12-07T02:53:50;7.88;;;2.65;;
80211;SDS011;70434;37.956;23.722;2023-12-07T02:56:16;5.60;;;2.38;;
80211;SDS011;70434;37.956;23.722;2023-12-07T02:58:41;6.35;;;2.42;;
80211;SDS011;70434;37.956;23.722;2023-12-07T03:01:07;5.85;;;2.60;;
80211;SDS011;70434;37.956;23.722;2023-12-07T03:03:33;7.57;;;2.13;;
80211;SDS011;70434;37.956;23.722;2023-12-07T03:05:58;8.18;;;2.22;;
80211;SDS011;70434;37.956;23.722;2023-12-07T03:08:27;3.80;;;2.20;;
80211;SDS011;70434;37.956;23.722;2023-12-07T03:10:53;7.97;;;2.70;;
80211;SDS011;70434;37.956;23.722;2023-12-07T03:13:19;4.78;;;2.28;;
80211;SDS011;70434;37.956;23.722;2023-12-07T03:15:44;7.72;;;2.40;;
80211;SDS011;70434;37.956;23.722;2023-12-07T03:18:10;8.13;;;2.30;;
80211;SDS011;70434;37.956;23.722;2023-12-07T03:20:36;4.53;;;1.60;;
80211;SDS011;70434;37.956;23.722;2023-12-07T03:23:02;6.10;;;2.05;;
80211;SDS011;70434;37.956;23.722;2023-12-07T03:25:27;3.42;;;1.40;;
80211;SDS011;70434;37.956;23.722;2023-12-07T03:27:56;4.63;;;1.60;;
80211;SDS011;70434;37.956;23.722;2023-12-07T03:30:21;5.22;;;1.80;;
80211;SDS011;70434;37.956;23.722;2023-12-07T03:32:47;5.05;;;1.67;;
80211;SDS011;70434;37.956;23.722;2023-12-07T03:35:13;6.35;;;1.98;;
80211;SDS011;70434;37.956;23.722;2023-12-07T03:37:38;4.70;;;1.80;;
80211;SDS011;70434;37.956;23.722;2023-12-07T03:40:04;6.28;;;2.22;;
80211;SDS011;70434;37.956;23.722;2023-12-07T03:42:30;5.97;;;2.15;;
80211;SDS011;70434;37.956;23.722;2023-12-07T03:44:56;11.98;;;2.50;;
80211;SDS011;70434;37.956;23.722;2023-12-07T03:47:22;8.75;;;3.35;;
80211;SDS011;70434;37.956;23.722;2023-12-07T03:49:47;7.55;;;2.55;;
80211;SDS011;70434;37.956;23.722;2023-12-07T03:52:13;13.73;;;2.95;;
80211;SDS011;70434;37.956;23.722;2023-12-07T03:54:39;8.63;;;2.50;;
80211;SDS011;70434;37.956;23.722;2023-12-07T03:57:05;10.23;;;2.90;;
80211;SDS011;70434;37.956;23.722;2023-12-07T03:59:30;7.45;;;3.38;;
80211;SDS011;70434;37.956;23.722;2023-12-07T04:01:56;5.28;;;2.38;;
80211;SDS011;70434;37.956;23.722;2023-12-07T04:04:22;10.48;;;2.78;;
80211;SDS011;70434;37.956;23.722;2023-12-07T04:06:47;12.65;;;2.70;;
80211;SDS011;70434;37.956;23.722;2023-12-07T04:09:13;7.60;;;3.13;;
80211;SDS011;70434;37.956;23.722;2023-12-07T04:11:39;8.38;;;3.58;;
80211;SDS011;70434;37.956;23.722;2023-12-07T04:14:04;12.93;;;4.20;;
80211;SDS011;70434;37.956;23.722;2023-12-07T04:16:30;13.50;;;5.45;;
80211;SDS011;70434;37.956;23.722;2023-12-07T04:18:56;10.18;;;4.53;;
80211;SDS011;70434;37.956;23.722;2023-12-07T04:21:22;9.07;;;3.95;;
80211;SDS011;70434;37.956;23.722;2023-12-07T04:23:47;28.75;;;14.05;;
80211;SDS011;70434;37.956;23.722;2023-12-07T04:26:13;17.35;;;6.82;;
80211;SDS011;70434;37.956;23.722;2023-12-07T04:28:40;10.20;;;4.15;;
80211;SDS011;70434;37.956;23.722;2023-12-07T04:31:06;12.10;;;4.95;;
80211;SDS011;70434;37.956;23.722;2023-12-07T04:33:32;26.85;;;12.30;;
80211;SDS011;70434;37.956;23.722;2023-12-07T04:35:57;34.50;;;13.48;;
80211;SDS011;70434;37.956;23.722;2023-12-07T04:38:23;16.40;;;6.38;;
80211;SDS011;70434;37.956;23.722;2023-12-07T04:40:49;21.08;;;11.25;;
80211;SDS011;70434;37.956;23.722;2023-12-07T04:43:15;19.30;;;8.35;;
80211;SDS011;70434;37.956;23.722;2023-12-07T04:45:41;13.90;;;6.78;;
80211;SDS011;70434;37.956;23.722;2023-12-07T04:48:06;13.00;;;4.47;;
80211;SDS011;70434;37.956;23.722;2023-12-07T04:50:32;10.00;;;5.45;;
80211;SDS011;70434;37.956;23.722;2023-12-07T04:52:58;15.23;;;5.03;;
80211;SDS011;70434;37.956;23.722;2023-12-07T04:55:24;46.78;;;23.98;;
80211;SDS011;70434;37.956;23.722;2023-12-07T04:57:49;23.27;;;11.95;;
80211;SDS011;70434;37.956;23.722;2023-12-07T05:00:15;12.63;;;6.00;;
80211;SDS011;70434;37.956;23.722;2023-12-07T05:02:41;21.95;;;14.57;;
80211;SDS011;70434;37.956;23.722;2023-12-07T05:05:07;17.65;;;10.45;;
80211;SDS011;70434;37.956;23.722;2023-12-07T05:07:34;15.80;;;7.82;;
80211;SDS011;70434;37.956;23.722;2023-12-07T05:09:59;15.95;;;6.60;;
80211;SDS011;70434;37.956;23.722;2023-12-07T05:12:25;9.00;;;4.80;;
80211;SDS011;70434;37.956;23.722;2023-12-07T05:14:51;9.63;;;3.03;;
80211;SDS011;70434;37.956;23.722;2023-12-07T05:17:17;5.53;;;2.58;;
80211;SDS011;70434;37.956;23.722;2023-12-07T05:19:43;7.30;;;2.95;;
80211;SDS011;70434;37.956;23.722;2023-12-07T05:22:10;12.23;;;3.67;;
80211;SDS011;70434;37.956;23.722;2023-12-07T05:24:36;11.82;;;4.40;;
80211;SDS011;70434;37.956;23.722;2023-12-07T05:27:01;15.02;;;6.43;;
80211;SDS011;70434;37.956;23.722;2023-12-07T05:29:28;11.48;;;5.07;;
80211;SDS011;70434;37.956;23.722;2023-12-07T05:31:54;11.15;;;3.83;;
80211;SDS011;70434;37.956;23.722;2023-12-07T05:34:20;8.77;;;3.25;;
80211;SDS011;70434;37.956;23.722;2023-12-07T05:36:46;10.68;;;3.90;;
80211;SDS011;70434;37.956;23.722;2023-12-07T05:39:12;12.70;;;5.10;;
80211;SDS011;70434;37.956;23.722;2023-12-07T05:41:38;10.57;;;4.82;;
80211;SDS011;70434;37.956;23.722;2023-12-07T05:44:04;10.20;;;3.92;;
80211;SDS011;70434;37.956;23.722;2023-12-07T05:46:29;15.98;;;4.90;;
80211;SDS011;70434;37.956;23.722;2023-12-07T05:48:55;10.50;;;4.38;;
80211;SDS011;70434;37.956;23.722;2023-12-07T05:51:22;14.50;;;4.82;;
80211;SDS011;70434;37.956;23.722;2023-12-07T05:53:48;12.13;;;4.20;;
80211;SDS011;70434;37.956;23.722;2023-12-07T05:56:17;9.73;;;4.80;;
80211;SDS011;70434;37.956;23.722;2023-12-07T05:58:45;13.13;;;5.88;;
80211;SDS011;70434;37.956;23.722;2023-12-07T06:01:11;10.73;;;5.55;;
80211;SDS011;70434;37.956;23.722;2023-12-07T06:03:37;11.80;;;5.50;;
80211;SDS011;70434;37.956;23.722;2023-12-07T06:06:02;25.65;;;12.57;;
80211;SDS011;70434;37.956;23.722;2023-12-07T06:08:29;36.53;;;13.73;;
80211;SDS011;70434;37.956;23.722;2023-12-07T06:10:54;47.45;;;23.98;;
80211;SDS011;70434;37.956;23.722;2023-12-07T06:13:20;18.98;;;7.93;;
80211;SDS011;70434;37.956;23.722;2023-12-07T06:15:46;11.90;;;5.82;;
80211;SDS011;70434;37.956;23.722;2023-12-07T06:18:11;20.58;;;5.53;;
80211;SDS011;70434;37.956;23.722;2023-12-07T06:20:37;16.52;;;5.80;;
80211;SDS011;70434;37.956;23.722;2023-12-07T06:23:03;16.13;;;6.03;;
80211;SDS011;70434;37.956;23.722;2023-12-07T06:25:29;15.55;;;6.45;;
80211;SDS011;70434;37.956;23.722;2023-12-07T06:27:55;19.25;;;7.85;;
80211;SDS011;70434;37.956;23.722;2023-12-07T06:30:21;19.67;;;7.70;;
80211;SDS011;70434;37.956;23.722;2023-12-07T06:32:47;23.25;;;11.82;;
80211;SDS011;70434;37.956;23.722;2023-12-07T06:35:13;28.60;;;13.63;;
80211;SDS011;70434;37.956;23.722;2023-12-07T06:37:38;41.38;;;14.00;;
80211;SDS011;70434;37.956;23.722;2023-12-07T06:40:08;23.25;;;12.18;;
80211;SDS011;70434;37.956;23.722;2023-12-07T06:42:35;27.15;;;12.20;;
80211;SDS011;70434;37.956;23.722;2023-12-07T06:45:01;15.98;;;7.00;;
80211;SDS011;70434;37.956;23.722;2023-12-07T06:47:27;21.52;;;8.20;;
80211;SDS011;70434;37.956;23.722;2023-12-07T06:49:53;13.23;;;6.70;;
80211;SDS011;70434;37.956;23.722;2023-12-07T06:52:19;10.90;;;5.72;;
80211;SDS011;70434;37.956;23.722;2023-12-07T06:54:45;12.82;;;6.45;;
80211;SDS011;70434;37.956;23.722;2023-12-07T06:57:10;17.70;;;6.97;;
80211;SDS011;70434;37.956;23.722;2023-12-07T06:59:36;21.67;;;8.70;;
80211;SDS011;70434;37.956;23.722;2023-12-07T07:02:02;13.10;;;6.13;;
80211;SDS011;70434;37.956;23.722;2023-12-07T07:04:28;14.30;;;5.90;;
80211;SDS011;70434;37.956;23.722;2023-12-07T07:06:54;20.60;;;7.95;;
80211;SDS011;70434;37.956;23.722;2023-12-07T07:09:20;19.13;;;6.85;;
80211;SDS011;70434;37.956;23.722;2023-12-07T07:11:49;16.30;;;7.13;;
80211;SDS011;70434;37.956;23.722;2023-12-07T07:14:15;15.85;;;8.02;;
80211;SDS011;70434;37.956;23.722;2023-12-07T07:16:41;20.23;;;9.13;;
80211;SDS011;70434;37.956;23.722;2023-12-07T07:19:06;20.92;;;8.18;;
80211;SDS011;70434;37.956;23.722;2023-12-07T07:21:33;15.20;;;7.13;;
80211;SDS011;70434;37.956;23.722;2023-12-07T07:23:58;22.50;;;7.75;;
80211;SDS011;70434;37.956;23.722;2023-12-07T07:26:24;16.60;;;7.32;;
80211;SDS011;70434;37.956;23.722;2023-12-07T07:28:53;21.73;;;8.15;;
80211;SDS011;70434;37.956;23.722;2023-12-07T07:31:19;17.17;;;7.18;;
80211;SDS011;70434;37.956;23.722;2023-12-07T07:33:45;26.13;;;7.68;;
80211;SDS011;70434;37.956;23.722;2023-12-07T07:36:12;18.48;;;8.95;;
80211;SDS011;70434;37.956;23.722;2023-12-07T07:38:40;22.17;;;8.52;;
80211;SDS011;70434;37.956;23.722;2023-12-07T07:41:06;30.15;;;7.88;;
80211;SDS011;70434;37.956;23.722;2023-12-07T07:43:31;25.85;;;8.63;;
80211;SDS011;70434;37.956;23.722;2023-12-07T07:45:59;28.00;;;7.60;;
80211;SDS011;70434;37.956;23.722;2023-12-07T07:48:25;30.55;;;9.48;;
80211;SDS011;70434;37.956;23.722;2023-12-07T07:50:51;25.10;;;10.18;;
80211;SDS011;70434;37.956;23.722;2023-12-07T07:53:17;27.90;;;11.15;;
80211;SDS011;70434;37.956;23.722;2023-12-07T07:55:42;26.90;;;13.35;;
80211;SDS011;70434;37.956;23.722;2023-12-07T07:58:08;32.55;;;13.30;;
80211;SDS011;70434;37.956;23.722;2023-12-07T08:00:34;31.55;;;13.48;;
80211;SDS011;70434;37.956;23.722;2023-12-07T08:03:00;29.13;;;12.18;;
80211;SDS011;70434;37.956;23.722;2023-12-07T08:05:26;22.95;;;11.88;;
80211;SDS011;70434;37.956;23.722;2023-12-07T08:07:51;33.15;;;13.25;;
80211;SDS011;70434;37.956;23.722;2023-12-07T08:10:17;26.50;;;11.05;;
80211;SDS011;70434;37.956;23.722;2023-12-07T08:12:43;27.33;;;12.73;;
80211;SDS011;70434;37.956;23.722;2023-12-07T08:15:09;30.75;;;11.90;;
80211;SDS011;70434;37.956;23.722;2023-12-07T08:17:42;38.10;;;15.45;;
80211;SDS011;70434;37.956;23.722;2023-12-07T08:20:08;34.97;;;14.05;;
80211;SDS011;70434;37.956;23.722;2023-12-07T08:22:39;33.38;;;15.75;;
80211;SDS011;70434;37.956;23.722;2023-12-07T08:25:08;34.97;;;14.93;;
80211;SDS011;70434;37.956;23.722;2023-12-07T08:27:36;37.65;;;15.63;;
80211;SDS011;70434;37.956;23.722;2023-12-07T08:30:04;34.92;;;13.88;;
80211;SDS011;70434;37.956;23.722;2023-12-07T08:32:30;29.17;;;12.85;;
80211;SDS011;70434;37.956;23.722;2023-12-07T08:34:56;20.15;;;8.13;;
80211;SDS011;70434;37.956;23.722;2023-12-07T08:37:22;14.98;;;7.00;;
80211;SDS011;70434;37.956;23.722;2023-12-07T08:39:47;13.85;;;6.47;;
80211;SDS011;70434;37.956;23.722;2023-12-07T08:42:14;11.73;;;4.90;;
80211;SDS011;70434;37.956;23.722;2023-12-07T08:44:40;12.93;;;4.38;;
80211;SDS011;70434;37.956;23.722;2023-12-07T08:47:08;13.50;;;4.70;;
80211;SDS011;70434;37.956;23.722;2023-12-07T08:49:34;14.32;;;4.72;;
80211;SDS011;70434;37.956;23.722;2023-12-07T08:51:59;10.65;;;3.58;;
80211;SDS011;70434;37.956;23.722;2023-12-07T08:54:25;9.82;;;4.78;;
80211;SDS011;70434;37.956;23.722;2023-12-07T08:56:51;5.88;;;3.00;;
80211;SDS011;70434;37.956;23.722;2023-12-07T08:59:17;7.47;;;3.13;;
80211;SDS011;70434;37.956;23.722;2023-12-07T09:01:42;8.77;;;3.65;;
80211;SDS011;70434;37.956;23.722;2023-12-07T09:04:08;15.10;;;3.30;;
80211;SDS011;70434;37.956;23.722;2023-12-07T09:06:34;7.78;;;3.05;;
80211;SDS011;70434;37.956;23.722;2023-12-07T09:09:01;15.60;;;4.13;;
80211;SDS011;70434;37.956;23.722;2023-12-07T09:11:29;6.82;;;2.95;;
80211;SDS011;70434;37.956;23.722;2023-12-07T09:13:55;11.68;;;3.55;;
80211;SDS011;70434;37.956;23.722;2023-12-07T09:16:21;8.30;;;2.92;;
80211;SDS011;70434;37.956;23.722;2023-12-07T09:18:46;12.23;;;3.22;;
80211;SDS011;70434;37.956;23.722;2023-12-07T09:21:13;8.65;;;3.40;;
80211;SDS011;70434;37.956;23.722;2023-12-07T09:23:39;10.05;;;3.88;;
80211;SDS011;70434;37.956;23.722;2023-12-07T09:26:05;9.35;;;2.30;;
80211;SDS011;70434;37.956;23.722;2023-12-07T09:28:31;6.38;;;2.50;;
80211;SDS011;70434;37.956;23.722;2023-12-07T09:31:00;6.60;;;2.53;;
80211;SDS011;70434;37.956;23.722;2023-12-07T09:33:26;8.07;;;2.45;;
80211;SDS011;70434;37.956;23.722;2023-12-07T09:35:52;8.70;;;2.42;;
80211;SDS011;70434;37.956;23.722;2023-12-07T09:38:17;11.30;;;2.53;;
80211;SDS011;70434;37.956;23.722;2023-12-07T09:40:43;12.10;;;3.55;;
80211;SDS011;70434;37.956;23.722;2023-12-07T09:43:10;13.75;;;4.28;;
80211;SDS011;70434;37.956;23.722;2023-12-07T09:45:37;13.18;;;4.20;;
80211;SDS011;70434;37.956;23.722;2023-12-07T09:48:03;12.95;;;4.07;;
80211;SDS011;70434;37.956;23.722;2023-12-07T09:50:29;10.75;;;3.75;;
80211;SDS011;70434;37.956;23.722;2023-12-07T09:52:56;24.60;;;3.80;;
80211;SDS011;70434;37.956;23.722;2023-12-07T09:55:23;12.18;;;3.58;;
80211;SDS011;70434;37.956;23.722;2023-12-07T09:57:50;7.53;;;2.63;;
80211;SDS011;70434;37.956;23.722;2023-12-07T10:00:16;8.02;;;2.95;;
80211;SDS011;70434;37.956;23.722;2023-12-07T10:02:44;5.93;;;2.25;;
80211;SDS011;70434;37.956;23.722;2023-12-07T10:05:12;8.43;;;2.65;;
80211;SDS011;70434;37.956;23.722;2023-12-07T10:07:41;6.57;;;1.90;;
80211;SDS011;70434;37.956;23.722;2023-12-07T10:12:47;9.77;;;2.70;;
80211;SDS011;70434;37.956;23.722;2023-12-07T10:15:14;7.15;;;2.65;;
80211;SDS011;70434;37.956;23.722;2023-12-07T10:17:58;8.10;;;3.20;;
80211;SDS011;70434;37.956;23.722;2023-12-07T10:20:25;3.80;;;1.95;;
80211;SDS011;70434;37.956;23.722;2023-12-07T10:23:02;4.93;;;1.70;;
80211;SDS011;70434;37.956;23.722;2023-12-07T10:25:33;5.68;;;1.85;;
80211;SDS011;70434;37.956;23.722;2023-12-07T10:28:01;5.57;;;1.98;;
80211;SDS011;70434;37.956;23.722;2023-12-07T10:30:32;5.43;;;2.05;;
80211;SDS011;70434;37.956;23.722;2023-12-07T10:32:58;5.10;;;2.00;;
80211;SDS011;70434;37.956;23.722;2023-12-07T10:35:24;5.57;;;1.80;;
80211;SDS011;70434;37.956;23.722;2023-12-07T10:37:50;8.07;;;1.95;;
80211;SDS011;70434;37.956;23.722;2023-12-07T10:40:16;4.22;;;1.38;;
80211;SDS011;70434;37.956;23.722;2023-12-07T10:42:47;5.72;;;2.05;;
80211;SDS011;70434;37.956;23.722;2023-12-07T10:45:14;5.45;;;2.25;;
80211;SDS011;70434;37.956;23.722;2023-12-07T10:47:40;4.60;;;1.90;;
80211;SDS011;70434;37.956;23.722;2023-12-07T10:50:09;4.78;;;1.67;;
80211;SDS011;70434;37.956;23.722;2023-12-07T10:52:45;7.25;;;1.95;;
80211;SDS011;70434;37.956;23.722;2023-12-07T10:55:21;5.15;;;2.35;;
80211;SDS011;70434;37.956;23.722;2023-12-07T10:57:52;5.93;;;1.90;;
80211;SDS011;70434;37.956;23.722;2023-12-07T11:00:19;4.15;;;2.42;;
80211;SDS011;70434;37.956;23.722;2023-12-07T11:02:49;5.85;;;2.05;;
80211;SDS011;70434;37.956;23.722;2023-12-07T11:05:17;4.50;;;1.75;;
80211;SDS011;70434;37.956;23.722;2023-12-07T11:10:24;5.35;;;2.03;;
80211;SDS011;70434;37.956;23.722;2023-12-07T11:13:00;4.85;;;1.85;;
80211;SDS011;70434;37.956;23.722;2023-12-07T11:15:36;6.50;;;2.08;;
80211;SDS011;70434;37.956;23.722;2023-12-07T11:18:04;5.03;;;1.77;;
80211;SDS011;70434;37.956;23.722;2023-12-07T11:20:31;3.95;;;1.98;;
80211;SDS011;70434;37.956;23.722;2023-12-07T11:23:05;6.03;;;2.03;;
80211;SDS011;70434;37.956;23.722;2023-12-07T11:25:31;4.35;;;1.90;;
80211;SDS011;70434;37.956;23.722;2023-12-07T11:28:01;3.65;;;1.67;;
80211;SDS011;70434;37.956;23.722;2023-12-07T11:30:32;6.00;;;1.80;;
80211;SDS011;70434;37.956;23.722;2023-12-07T11:33:00;4.13;;;1.98;;
80211;SDS011;70434;37.956;23.722;2023-12-07T11:35:30;4.15;;;1.58;;
80211;SDS011;70434;37.956;23.722;2023-12-07T11:38:03;5.60;;;1.75;;
80211;SDS011;70434;37.956;23.722;2023-12-07T11:40:36;8.65;;;1.67;;
80211;SDS011;70434;37.956;23.722;2023-12-07T11:43:04;7.50;;;2.10;;
80211;SDS011;70434;37.956;23.722;2023-12-07T11:45:38;7.10;;;1.67;;
80211;SDS011;70434;37.956;23.722;2023-12-07T11:48:12;5.05;;;1.38;;
80211;SDS011;70434;37.956;23.722;2023-12-07T11:55:52;5.93;;;1.77;;
80211;SDS011;70434;37.956;23.722;2023-12-07T11:58:18;6.47;;;2.15;;
80211;SDS011;70434;37.956;23.722;2023-12-07T12:00:45;7.40;;;1.85;;
80211;SDS011;70434;37.956;23.722;2023-12-07T12:03:12;5.97;;;2.53;;
80211;SDS011;70434;37.956;23.722;2023-12-07T12:05:41;8.88;;;2.05;;
80211;SDS011;70434;37.956;23.722;2023-12-07T12:08:08;4.25;;;1.60;;
80211;SDS011;70434;37.956;23.722;2023-12-07T12:10:34;5.20;;;1.60;;
80211;SDS011;70434;37.956;23.722;2023-12-07T12:13:03;7.80;;;2.40;;
80211;SDS011;70434;37.956;23.722;2023-12-07T12:15:29;7.10;;;1.92;;
80211;SDS011;70434;37.956;23.722;2023-12-07T12:17:59;3.95;;;1.63;;
80211;SDS011;70434;37.956;23.722;2023-12-07T12:20:25;6.18;;;1.98;;
80211;SDS011;70434;37.956;23.722;2023-12-07T12:22:52;5.18;;;2.40;;
80211;SDS011;70434;37.956;23.722;2023-12-07T12:25:19;5.55;;;1.95;;
80211;SDS011;70434;37.956;23.722;2023-12-07T12:27:54;6.30;;;2.10;;
80211;SDS011;70434;37.956;23.722;2023-12-07T12:30:27;6.15;;;2.00;;
80211;SDS011;70434;37.956;23.722;2023-12-07T12:32:53;3.03;;;1.30;;
80211;SDS011;70434;37.956;23.722;2023-12-07T12:35:19;4.95;;;2.00;;
80211;SDS011;70434;37.956;23.722;2023-12-07T12:37:45;3.17;;;1.70;;
80211;SDS011;70434;37.956;23.722;2023-12-07T12:40:12;4.55;;;1.65;;
80211;SDS011;70434;37.956;23.722;2023-12-07T12:42:44;4.82;;;1.88;;
80211;SDS011;70434;37.956;23.722;2023-12-07T12:45:12;4.40;;;1.50;;
80211;SDS011;70434;37.956;23.722;2023-12-07T12:47:39;4.97;;;2.00;;
80211;SDS011;70434;37.956;23.722;2023-12-07T12:50:06;4.40;;;1.77;;
80211;SDS011;70434;37.956;23.722;2023-12-07T12:52:33;5.03;;;2.10;;
80211;SDS011;70434;37.956;23.722;2023-12-07T12:54:59;7.10;;;2.08;;
80211;SDS011;70434;37.956;23.722;2023-12-07T12:57:25;5.53;;;1.83;;
80211;SDS011;70434;37.956;23.722;2023-12-07T12:59:52;5.57;;;2.00;;
80211;SDS011;70434;37.956;23.722;2023-12-07T13:02:18;5.25;;;2.20;;
80211;SDS011;70434;37.956;23.722;2023-12-07T13:04:45;5.63;;;1.95;;
80211;SDS011;70434;37.956;23.722;2023-12-07T13:07:11;7.45;;;2.22;;
80211;SDS011;70434;37.956;23.722;2023-12-07T13:09:37;4.57;;;2.00;;
80211;SDS011;70434;37.956;23.722;2023-12-07T13:12:04;5.28;;;2.30;;
80211;SDS011;70434;37.956;23.722;2023-12-07T13:14:30;8.07;;;2.38;;
80211;SDS011;70434;37.956;23.722;2023-12-07T13:16:55;5.95;;;2.60;;
80211;SDS011;70434;37.956;23.722;2023-12-07T13:19:21;6.43;;;2.90;;
80211;SDS011;70434;37.956;23.722;2023-12-07T13:21:47;9.32;;;2.45;;
80211;SDS011;70434;37.956;23.722;2023-12-07T13:24:12;8.18;;;2.83;;
80211;SDS011;70434;37.956;23.722;2023-12-07T13:26:38;7.47;;;3.22;;
80211;SDS011;70434;37.956;23.722;2023-12-07T13:29:04;7.63;;;2.80;;
80211;SDS011;70434;37.956;23.722;2023-12-07T13:31:30;5.75;;;2.13;;
80211;SDS011;70434;37.956;23.722;2023-12-07T13:33:56;6.38;;;2.72;;
80211;SDS011;70434;37.956;23.722;2023-12-07T13:36:22;7.25;;;2.15;;
80211;SDS011;70434;37.956;23.722;2023-12-07T13:38:51;5.40;;;2.45;;
80211;SDS011;70434;37.956;23.722;2023-12-07T13:41:18;6.85;;;2.40;;
80211;SDS011;70434;37.956;23.722;2023-12-07T13:43:44;6.35;;;3.40;;
80211;SDS011;70434;37.956;23.722;2023-12-07T13:46:10;4.97;;;2.38;;
80211;SDS011;70434;37.956;23.722;2023-12-07T13:48:36;9.20;;;2.83;;
80211;SDS011;70434;37.956;23.722;2023-12-07T13:51:01;6.70;;;2.60;;
80211;SDS011;70434;37.956;23.722;2023-12-07T13:53:29;6.15;;;2.17;;
80211;SDS011;70434;37.956;23.722;2023-12-07T13:55:55;6.53;;;2.35;;
80211;SDS011;70434;37.956;23.722;2023-12-07T13:58:21;4.63;;;1.95;;
80211;SDS011;70434;37.956;23.722;2023-12-07T14:00:47;5.47;;;2.25;;
80211;SDS011;70434;37.956;23.722;2023-12-07T14:03:12;10.93;;;2.63;;
80211;SDS011;70434;37.956;23.722;2023-12-07T14:05:38;3.85;;;1.73;;
80211;SDS011;70434;37.956;23.722;2023-12-07T14:08:07;7.20;;;2.45;;
80211;SDS011;70434;37.956;23.722;2023-12-07T14:10:33;5.93;;;2.63;;
80211;SDS011;70434;37.956;23.722;2023-12-07T14:12:59;8.13;;;2.58;;
80211;SDS011;70434;37.956;23.722;2023-12-07T14:15:25;5.43;;;2.83;;
80211;SDS011;70434;37.956;23.722;2023-12-07T14:17:51;5.45;;;2.45;;
80211;SDS011;70434;37.956;23.722;2023-12-07T14:20:17;6.47;;;2.75;;
80211;SDS011;70434;37.956;23.722;2023-12-07T14:22:43;6.05;;;2.30;;
80211;SDS011;70434;37.956;23.722;2023-12-07T14:25:09;7.45;;;1.90;;
80211;SDS011;70434;37.956;23.722;2023-12-07T14:27:35;4.68;;;1.77;;
80211;SDS011;70434;37.956;23.722;2023-12-07T14:30:01;9.85;;;2.15;;
80211;SDS011;70434;37.956;23.722;2023-12-07T14:32:27;5.50;;;1.70;;
80211;SDS011;70434;37.956;23.722;2023-12-07T14:34:54;7.75;;;1.98;;
80211;SDS011;70434;37.956;23.722;2023-12-07T14:37:20;7.38;;;2.00;;
80211;SDS011;70434;37.956;23.722;2023-12-07T14:39:46;5.95;;;2.60;;
80211;SDS011;70434;37.956;23.722;2023-12-07T14:42:12;7.95;;;2.67;;